createdAt,value
2018-11-25T00:00:10.313Z,17.48
2018-11-25T00:02:39.909Z,15.60
2018-11-25T00:05:09.448Z,15.90
2018-11-25T00:07:38.925Z,15.77
2018-11-25T00:10:08.826Z,16.92
2018-11-25T00:12:36.731Z,15.97
2018-11-25T00:15:05.337Z,21.80
2018-11-25T00:17:34.784Z,17.15
2018-11-25T00:20:04.604Z,16.27
2018-11-25T00:22:32.364Z,17.10
2018-11-25T00:25:00.161Z,16.80
2018-11-25T00:27:28.099Z,17.02
2018-11-25T00:29:55.864Z,15.95
2018-11-25T00:32:23.837Z,16.95
2018-11-25T00:34:51.649Z,15.67
2018-11-25T00:37:19.487Z,14.82
2018-11-25T00:39:47.728Z,15.93
2018-11-25T00:42:15.813Z,18.00
2018-11-25T00:44:44.538Z,15.40
2018-11-25T00:47:12.689Z,14.33
2018-11-25T00:49:42.171Z,14.80
2018-11-25T00:52:09.978Z,15.30
2018-11-25T00:54:39.748Z,14.05
2018-11-25T00:57:07.973Z,14.57
2018-11-25T00:59:35.803Z,14.35
2018-11-25T01:02:05.362Z,14.10
2018-11-25T01:04:33.795Z,13.13
2018-11-25T01:07:01.795Z,15.05
2018-11-25T01:09:29.614Z,15.50
2018-11-25T01:11:57.603Z,14.80
2018-11-25T01:14:26.001Z,14.10
2018-11-25T01:16:53.380Z,15.10
2018-11-25T01:19:22.059Z,15.18
2018-11-25T01:21:50.346Z,14.40
2018-11-25T01:24:18.252Z,13.80
2018-11-25T01:26:47.840Z,13.60
2018-11-25T01:29:16.430Z,14.15
2018-11-25T01:31:45.653Z,12.95
2018-11-25T01:34:13.657Z,13.65
2018-11-25T01:36:41.537Z,15.95
2018-11-25T01:39:09.559Z,13.57
2018-11-25T01:41:37.580Z,11.70
2018-11-25T01:44:05.469Z,12.20
2018-11-25T01:46:33.467Z,19.05
2018-11-25T01:49:01.501Z,14.15
2018-11-25T01:51:29.513Z,14.18
2018-11-25T01:53:57.243Z,12.07
2018-11-25T01:56:25.222Z,10.93
2018-11-25T01:58:54.619Z,11.80
2018-11-25T02:01:22.480Z,14.57
2018-11-25T02:03:50.359Z,13.27
2018-11-25T02:06:20.055Z,14.10
2018-11-25T02:08:47.937Z,13.68
2018-11-25T02:11:15.907Z,14.20
2018-11-25T02:13:43.759Z,14.23
2018-11-25T02:16:11.646Z,12.57
2018-11-25T02:18:41.049Z,12.13
2018-11-25T02:21:10.381Z,14.00
2018-11-25T02:23:37.987Z,11.38
2018-11-25T02:26:05.998Z,13.23
2018-11-25T02:28:34.155Z,11.07
2018-11-25T02:31:01.708Z,12.97
2018-11-25T02:33:29.841Z,12.73
2018-11-25T02:35:59.462Z,12.50
2018-11-25T02:38:28.422Z,12.07
2018-11-25T02:40:57.258Z,10.43
2018-11-25T02:43:27.193Z,11.32
2018-11-25T02:45:55.761Z,10.60
2018-11-25T02:48:23.504Z,11.17
2018-11-25T02:50:52.959Z,9.10
2018-11-25T02:53:22.652Z,12.60
2018-11-25T02:55:50.793Z,11.57
2018-11-25T02:58:20.581Z,10.10
2018-11-25T03:00:50.176Z,9.63
2018-11-25T03:03:18.777Z,8.63
2018-11-25T03:05:48.929Z,10.20
2018-11-25T03:08:17.631Z,11.10
2018-11-25T03:10:46.209Z,10.37
2018-11-25T03:13:14.267Z,11.73
2018-11-25T03:15:44.538Z,11.27
2018-11-25T03:18:14.319Z,11.73
2018-11-25T03:20:42.345Z,16.40
2018-11-25T03:23:10.261Z,12.73
2018-11-25T03:25:39.775Z,11.57
2018-11-25T03:28:09.920Z,10.43
2018-11-25T03:30:37.463Z,11.00
2018-11-25T03:33:07.125Z,10.93
2018-11-25T03:35:34.935Z,11.98
2018-11-25T03:38:04.211Z,11.45
2018-11-25T03:40:32.375Z,11.55
2018-11-25T03:43:02.487Z,10.40
2018-11-25T03:45:30.303Z,12.57
2018-11-25T03:47:59.675Z,12.05
2018-11-25T03:50:27.705Z,11.57
2018-11-25T03:52:55.494Z,11.23
2018-11-25T03:55:23.697Z,11.10
2018-11-25T03:57:53.669Z,10.97
2018-11-25T04:00:24.964Z,11.87
2018-11-25T04:02:55.274Z,10.77
2018-11-25T04:05:22.857Z,10.97
2018-11-25T04:07:51.995Z,10.40
2018-11-25T04:10:20.593Z,12.10
2018-11-25T04:12:48.960Z,11.47
2018-11-25T04:15:20.223Z,10.97
2018-11-25T04:17:50.585Z,11.37
2018-11-25T04:20:22.989Z,11.47
2018-11-25T04:22:52.318Z,10.43
2018-11-25T04:25:21.877Z,10.60
2018-11-25T04:27:50.448Z,9.13
2018-11-25T04:30:20.785Z,11.60
2018-11-25T04:32:49.138Z,11.33
2018-11-25T04:35:17.735Z,9.20
2018-11-25T04:37:47.543Z,10.87
2018-11-25T04:40:16.097Z,10.90
2018-11-25T04:42:45.554Z,12.60
2018-11-25T04:45:15.286Z,11.83
2018-11-25T04:47:44.809Z,11.47
2018-11-25T04:50:22.324Z,11.27
2018-11-25T04:52:52.424Z,11.13
2018-11-25T04:55:20.184Z,11.20
2018-11-25T04:57:54.147Z,11.70
2018-11-25T05:00:23.799Z,12.07
2018-11-25T05:02:53.473Z,10.60
2018-11-25T05:05:24.440Z,11.57
2018-11-25T05:07:54.982Z,11.67
2018-11-25T05:10:23.006Z,10.33
2018-11-25T05:12:52.144Z,12.17
2018-11-25T05:15:20.290Z,10.13
2018-11-25T05:17:49.625Z,9.17
2018-11-25T05:20:19.553Z,11.90
2018-11-25T05:22:47.282Z,10.73
2018-11-25T05:25:15.271Z,16.48
2018-11-25T05:27:43.058Z,13.47
2018-11-25T05:30:15.681Z,12.77
2018-11-25T05:32:43.657Z,13.23
2018-11-25T05:35:13.629Z,12.70
2018-11-25T05:37:43.421Z,12.30
2018-11-25T05:40:11.987Z,17.00
2018-11-25T05:42:39.885Z,13.13
2018-11-25T05:45:15.655Z,12.20
2018-11-25T05:47:43.916Z,6.70
2018-11-25T05:50:15.550Z,11.27
2018-11-25T05:52:43.304Z,11.63
2018-11-25T05:55:13.267Z,11.30
2018-11-25T05:57:42.633Z,12.90
2018-11-25T06:00:15.843Z,13.20
2018-11-25T06:02:43.676Z,12.20
2018-11-25T06:05:11.673Z,11.57
2018-11-25T06:07:39.564Z,12.20
2018-11-25T06:10:11.014Z,13.57
2018-11-25T06:12:39.402Z,14.67
2018-11-25T06:15:10.850Z,12.87
2018-11-25T06:17:38.947Z,8.70
2018-11-25T06:20:08.134Z,10.90
2018-11-25T06:22:35.997Z,9.53
2018-11-25T06:25:05.377Z,12.60
2018-11-25T06:27:38.166Z,12.77
2018-11-25T06:30:02.808Z,12.47
2018-11-25T06:32:32.385Z,12.90
2018-11-25T06:35:01.775Z,9.27
2018-11-25T06:37:31.387Z,10.13
2018-11-25T06:39:59.219Z,5.83
2018-11-25T06:42:27.281Z,8.33
2018-11-25T06:44:55.251Z,11.00
2018-11-25T06:47:23.404Z,15.70
2018-11-25T06:49:51.264Z,5.73
2018-11-25T06:52:19.127Z,14.87
2018-11-25T06:54:47.187Z,17.70
2018-11-25T06:57:15.749Z,13.93
2018-11-25T06:59:43.729Z,12.50
2018-11-25T07:02:11.736Z,14.27
2018-11-25T07:04:40.050Z,13.43
2018-11-25T07:07:07.829Z,15.47
2018-11-25T07:09:36.414Z,15.90
2018-11-25T07:12:04.735Z,14.93
2018-11-25T07:14:34.710Z,15.30
2018-11-25T07:17:02.556Z,16.93
2018-11-25T07:19:32.181Z,16.23
2018-11-25T07:21:59.922Z,16.33
2018-11-25T07:24:29.284Z,15.27
2018-11-25T07:26:58.577Z,16.20
2018-11-25T07:29:26.334Z,15.57
2018-11-25T07:31:54.173Z,9.70
2018-11-25T07:34:22.138Z,13.40
2018-11-25T07:36:50.078Z,14.57
2018-11-25T07:39:19.730Z,13.70
2018-11-25T07:41:49.383Z,11.83
2018-11-25T07:44:17.254Z,12.95
2018-11-25T07:46:47.038Z,14.27
2018-11-25T07:49:15.657Z,10.27
2018-11-25T07:51:43.612Z,15.38
2018-11-25T07:54:12.998Z,14.43
2018-11-25T07:56:42.622Z,14.60
2018-11-25T07:59:12.210Z,9.70
2018-11-25T08:01:41.714Z,15.30
2018-11-25T08:04:11.322Z,14.10
2018-11-25T08:06:39.339Z,13.87
2018-11-25T08:09:08.488Z,12.40
2018-11-25T08:11:36.341Z,15.60
2018-11-25T08:14:04.487Z,13.33
2018-11-25T08:16:33.753Z,10.60
2018-11-25T08:19:01.767Z,16.13
2018-11-25T08:21:29.988Z,15.53
2018-11-25T08:23:58.068Z,13.77
2018-11-25T08:26:25.929Z,12.53
2018-11-25T08:28:53.903Z,11.97
2018-11-25T08:31:23.218Z,15.10
2018-11-25T08:33:51.263Z,14.30
2018-11-25T08:36:20.346Z,15.38
2018-11-25T08:38:50.393Z,13.60
2018-11-25T08:41:20.074Z,14.13
2018-11-25T08:43:49.463Z,14.57
2018-11-25T08:46:17.277Z,14.68
2018-11-25T08:48:45.355Z,11.73
2018-11-25T08:51:14.889Z,9.13
2018-11-25T08:53:42.605Z,11.97
2018-11-25T08:56:10.157Z,10.73
2018-11-25T08:58:37.724Z,12.50
2018-11-25T09:01:05.909Z,13.10
2018-11-25T09:03:35.508Z,14.57
2018-11-25T09:06:03.895Z,12.97
2018-11-25T09:08:31.899Z,14.20
2018-11-25T09:10:59.797Z,13.57
2018-11-25T09:13:29.407Z,14.00
2018-11-25T09:15:59.003Z,13.18
2018-11-25T09:18:28.709Z,11.90
2018-11-25T09:20:58.211Z,14.10
2018-11-25T09:23:26.285Z,11.80
2018-11-25T09:25:54.198Z,15.25
2018-11-25T09:28:23.267Z,14.02
2018-11-25T09:30:51.355Z,15.60
2018-11-25T09:33:21.322Z,14.35
2018-11-25T09:35:50.958Z,14.23
2018-11-25T09:38:18.977Z,16.67
2018-11-25T09:40:48.396Z,15.68
2018-11-25T09:43:16.014Z,13.50
2018-11-25T09:45:44.048Z,13.77
2018-11-25T09:48:12.077Z,13.50
2018-11-25T09:50:40.041Z,13.10
2018-11-25T09:53:08.206Z,15.13
2018-11-25T09:55:37.882Z,14.23
2018-11-25T09:58:07.619Z,13.65
2018-11-25T10:00:37.105Z,13.20
2018-11-25T10:03:04.155Z,8.50
2018-11-25T10:05:32.693Z,5.87
2018-11-25T10:08:02.238Z,14.30
2018-11-25T10:10:31.359Z,10.68
2018-11-25T10:12:59.538Z,7.37
2018-11-25T10:15:28.205Z,10.70
2018-11-25T10:17:59.866Z,6.00
2018-11-25T10:20:26.357Z,10.27
2018-11-25T10:22:54.366Z,11.10
2018-11-25T10:25:24.009Z,8.17
2018-11-25T10:27:52.151Z,13.43
2018-11-25T10:30:21.005Z,13.87
2018-11-25T10:32:49.592Z,11.80
2018-11-25T10:35:19.789Z,14.30
2018-11-25T10:37:49.143Z,15.50
2018-11-25T10:40:18.274Z,11.93
2018-11-25T10:42:47.506Z,12.10
2018-11-25T10:45:16.325Z,11.73
2018-11-25T10:47:44.249Z,16.80
2018-11-25T10:50:22.397Z,13.80
2018-11-25T10:52:52.250Z,15.30
2018-11-25T10:55:21.253Z,12.07
2018-11-25T10:57:49.701Z,8.83
2018-11-25T11:00:42.132Z,13.10
2018-11-25T11:03:27.869Z,14.05
2018-11-25T11:06:13.486Z,12.27
2018-11-25T11:08:42.002Z,11.80
2018-11-25T11:11:11.358Z,14.30
2018-11-25T11:13:39.537Z,9.20
2018-11-25T11:16:07.384Z,8.57
2018-11-25T11:18:35.268Z,12.37
2018-11-25T11:21:03.427Z,14.17
2018-11-25T11:23:31.389Z,12.52
2018-11-25T11:26:06.723Z,14.32
2018-11-25T11:28:28.839Z,13.73
2018-11-25T11:30:56.632Z,12.30
2018-11-25T11:33:24.657Z,13.85
2018-11-25T11:35:53.944Z,13.48
2018-11-25T11:38:21.920Z,9.48
2018-11-25T11:40:51.700Z,12.48
2018-11-25T11:43:20.242Z,11.43
2018-11-25T11:45:48.459Z,7.53
2018-11-25T11:48:16.363Z,10.87
2018-11-25T11:50:44.692Z,10.83
2018-11-25T11:53:12.433Z,13.03
2018-11-25T11:55:40.190Z,11.23
2018-11-25T11:58:08.335Z,11.82
2018-11-25T12:00:36.808Z,10.10
2018-11-25T12:03:04.672Z,11.88
2018-11-25T12:05:32.759Z,11.33
2018-11-25T12:08:02.416Z,8.70
2018-11-25T12:10:31.530Z,11.82
2018-11-25T12:13:00.940Z,13.57
2018-11-25T12:15:30.835Z,12.93
2018-11-25T12:17:59.015Z,12.23
2018-11-25T12:20:27.615Z,12.95
2018-11-25T12:22:56.114Z,14.10
2018-11-25T12:25:25.484Z,16.50
2018-11-25T12:27:54.775Z,15.60
2018-11-25T12:30:23.879Z,15.23
2018-11-25T12:32:52.647Z,15.60
2018-11-25T12:35:21.244Z,17.08
2018-11-25T12:37:49.800Z,11.35
2018-11-25T12:40:18.324Z,14.23
2018-11-25T12:43:03.801Z,15.68
2018-11-25T12:45:32.432Z,12.13
2018-11-25T12:48:02.394Z,17.47
2018-11-25T12:50:30.480Z,12.37
2018-11-25T12:52:59.561Z,10.73
2018-11-25T12:55:28.041Z,16.33
2018-11-25T12:57:56.629Z,14.65
2018-11-25T13:00:34.508Z,16.17
2018-11-25T13:03:02.616Z,19.10
2018-11-25T13:05:30.777Z,17.30
2018-11-25T13:08:00.383Z,18.37
2018-11-25T13:10:28.266Z,16.27
2018-11-25T13:12:57.780Z,16.37
2018-11-25T13:15:27.156Z,17.87
2018-11-25T13:17:55.008Z,21.07
2018-11-25T13:20:23.104Z,18.37
2018-11-25T13:22:50.987Z,19.17
2018-11-25T13:25:20.450Z,19.83
2018-11-25T13:27:49.972Z,17.30
2018-11-25T13:30:18.580Z,15.20
2018-11-25T13:32:46.501Z,19.60
2018-11-25T13:35:14.621Z,12.43
2018-11-25T13:37:44.389Z,17.97
2018-11-25T13:40:14.718Z,18.80
2018-11-25T13:42:42.608Z,20.53
2018-11-25T13:45:12.286Z,13.90
2018-11-25T13:47:42.485Z,13.43
2018-11-25T13:50:12.347Z,15.83
2018-11-25T13:52:40.363Z,17.67
2018-11-25T13:55:12.304Z,12.52
2018-11-25T13:57:41.647Z,10.87
2018-11-25T14:00:34.654Z,14.37
2018-11-25T14:03:03.526Z,11.23
2018-11-25T14:05:31.591Z,14.57
2018-11-25T14:08:01.530Z,11.27
2018-11-25T14:10:32.079Z,11.67
2018-11-25T14:13:01.508Z,9.30
2018-11-25T14:15:29.746Z,10.30
2018-11-25T14:17:57.253Z,8.88
2018-11-25T14:20:25.325Z,14.00
2018-11-25T14:22:55.567Z,12.83
2018-11-25T14:25:26.087Z,15.13
2018-11-25T14:27:55.145Z,11.10
2018-11-25T14:30:25.636Z,14.77
2018-11-25T14:33:05.173Z,8.27
2018-11-25T14:35:34.820Z,8.73
2018-11-25T14:38:04.236Z,9.57
2018-11-25T14:40:32.603Z,10.30
2018-11-25T14:43:02.360Z,13.37
2018-11-25T14:45:31.883Z,11.97
2018-11-25T14:48:01.599Z,10.75
2018-11-25T14:50:29.979Z,10.80
2018-11-25T14:52:57.934Z,10.03
2018-11-25T14:55:25.823Z,7.93
2018-11-25T14:57:55.615Z,10.80
2018-11-25T15:00:23.092Z,9.98
2018-11-25T15:03:00.390Z,10.40
2018-11-25T15:05:42.533Z,11.40
2018-11-25T15:08:11.450Z,10.30
2018-11-25T15:10:39.011Z,15.20
2018-11-25T15:13:07.577Z,16.67
2018-11-25T15:15:35.539Z,12.30
2018-11-25T15:18:03.624Z,9.00
2018-11-25T15:20:33.028Z,13.77
2018-11-25T15:23:01.668Z,12.13
2018-11-25T15:25:36.639Z,9.50
2018-11-25T15:28:06.380Z,14.43
2018-11-25T15:30:34.906Z,15.83
2018-11-25T15:33:02.814Z,17.63
2018-11-25T15:35:32.421Z,17.03
2018-11-25T15:38:00.427Z,16.67
2018-11-25T15:40:30.632Z,13.07
2018-11-25T15:43:00.083Z,9.38
2018-11-25T15:45:28.088Z,17.23
2018-11-25T15:48:21.354Z,19.48
2018-11-25T15:50:50.921Z,19.63
2018-11-25T15:53:18.806Z,19.87
2018-11-25T15:55:49.718Z,16.10
2018-11-25T15:58:17.856Z,17.63
2018-11-25T16:00:47.296Z,20.45
2018-11-25T16:03:15.558Z,18.65
2018-11-25T16:05:44.701Z,12.87
2018-11-25T16:08:14.079Z,15.20
2018-11-25T16:10:42.097Z,19.30
2018-11-25T16:13:09.953Z,13.70
2018-11-25T16:15:37.838Z,18.10
2018-11-25T16:18:07.429Z,12.80
2018-11-25T16:20:35.413Z,18.87
2018-11-25T16:23:04.294Z,18.10
2018-11-25T16:25:41.806Z,19.67
2018-11-25T16:28:21.510Z,21.23
2018-11-25T16:30:49.986Z,18.40
2018-11-25T16:33:18.422Z,15.75
2018-11-25T16:35:48.447Z,11.48
2018-11-25T16:38:17.229Z,9.67
2018-11-25T16:40:46.833Z,12.43
2018-11-25T16:43:14.771Z,17.40
2018-11-25T16:45:42.862Z,17.13
2018-11-25T16:48:12.494Z,19.40
2018-11-25T16:50:40.315Z,17.50
2018-11-25T16:53:09.448Z,19.93
2018-11-25T16:55:38.892Z,14.50
2018-11-25T16:58:07.320Z,11.63
2018-11-25T17:00:36.369Z,19.05
2018-11-25T17:03:05.755Z,20.37
2018-11-25T17:05:35.982Z,20.55
2018-11-25T17:08:11.204Z,14.52
2018-11-25T17:10:39.193Z,14.15
2018-11-25T17:13:09.012Z,13.93
2018-11-25T17:15:36.778Z,15.77
2018-11-25T17:18:04.682Z,13.80
2018-11-25T17:20:32.555Z,13.60
2018-11-25T17:23:00.547Z,22.53
2018-11-25T17:25:28.662Z,14.32
2018-11-25T17:27:56.242Z,12.70
2018-11-25T17:30:26.131Z,16.13
2018-11-25T17:32:53.975Z,18.45
2018-11-25T17:35:25.766Z,22.60
2018-11-25T17:37:53.821Z,20.27
2018-11-25T17:40:22.341Z,19.23
2018-11-25T17:42:51.907Z,16.37
2018-11-25T17:45:20.352Z,22.97
2018-11-25T17:47:50.320Z,19.70
2018-11-25T17:50:26.776Z,14.60
2018-11-25T17:52:54.571Z,20.48
2018-11-25T17:55:23.392Z,17.53
2018-11-25T17:57:51.408Z,15.30
2018-11-25T18:00:50.919Z,12.85
2018-11-25T18:03:24.420Z,17.58
2018-11-25T18:05:52.966Z,23.50
2018-11-25T18:08:20.898Z,16.42
2018-11-25T18:10:50.668Z,21.12
2018-11-25T18:13:20.023Z,12.57
2018-11-25T18:15:48.399Z,22.35
2018-11-25T18:18:35.444Z,22.93
2018-11-25T18:21:03.936Z,18.00
2018-11-25T18:23:32.386Z,22.62
2018-11-25T18:25:59.948Z,23.33
2018-11-25T18:28:27.496Z,19.92
2018-11-25T18:30:56.151Z,19.35
2018-11-25T18:33:24.797Z,9.43
2018-11-25T18:35:52.898Z,21.23
2018-11-25T18:38:21.478Z,19.17
2018-11-25T18:40:49.597Z,20.65
2018-11-25T18:43:17.599Z,18.30
2018-11-25T18:45:45.698Z,19.23
2018-11-25T18:48:14.637Z,19.90
2018-11-25T18:50:42.808Z,19.37
2018-11-25T18:53:13.384Z,20.73
2018-11-25T18:55:40.769Z,21.45
2018-11-25T18:58:08.966Z,20.80
2018-11-25T19:00:47.663Z,22.08
2018-11-25T19:03:15.483Z,20.40
2018-11-25T19:05:45.107Z,17.97
2018-11-25T19:08:13.684Z,20.90
2018-11-25T19:10:41.734Z,22.87
2018-11-25T19:13:11.803Z,15.25
2018-11-25T19:15:39.363Z,19.73
2018-11-25T19:18:09.708Z,21.03
2018-11-25T19:20:37.616Z,23.70
2018-11-25T19:23:07.617Z,21.67
2018-11-25T19:25:37.225Z,21.42
2018-11-25T19:28:06.613Z,19.23
2018-11-25T19:30:34.795Z,19.77
2018-11-25T19:33:03.400Z,9.32
2018-11-25T19:35:31.274Z,16.55
2018-11-25T19:37:58.906Z,17.27
2018-11-25T19:40:28.728Z,20.90
2018-11-25T19:42:58.076Z,21.80
2018-11-25T19:45:26.822Z,19.08
2018-11-25T19:47:55.782Z,20.45
2018-11-25T19:50:27.632Z,15.20
2018-11-25T19:52:55.302Z,18.05
2018-11-25T19:55:24.457Z,16.95
2018-11-25T19:57:53.793Z,17.37
2018-11-25T20:00:23.979Z,13.43
2018-11-25T20:02:51.828Z,17.73
2018-11-25T20:05:21.653Z,17.08
2018-11-25T20:07:51.458Z,17.75
2018-11-25T20:10:20.618Z,12.32
2018-11-25T20:12:49.375Z,16.20
2018-11-25T20:15:17.896Z,13.68
2018-11-25T20:17:54.187Z,14.55
2018-11-25T20:20:16.008Z,13.48
2018-11-25T20:22:45.848Z,14.18
2018-11-25T20:25:16.417Z,12.35
2018-11-25T20:27:45.449Z,13.90
2018-11-25T20:30:15.688Z,17.27
2018-11-25T20:33:01.050Z,16.37
2018-11-25T20:35:28.973Z,16.03
2018-11-25T20:38:14.372Z,15.85
2018-11-25T20:40:42.543Z,18.02
2018-11-25T20:43:10.464Z,17.92
2018-11-25T20:45:56.440Z,15.43
2018-11-25T20:48:24.036Z,12.47
2018-11-25T20:50:53.857Z,14.48
2018-11-25T20:53:39.285Z,15.53
2018-11-25T20:56:07.409Z,16.80
2018-11-25T20:58:35.543Z,14.90
2018-11-25T21:01:04.351Z,16.08
2018-11-25T21:03:32.520Z,14.75
2018-11-25T21:06:01.890Z,11.15
2018-11-25T21:08:31.599Z,12.20
2018-11-25T21:11:00.922Z,11.18
2018-11-25T21:13:28.805Z,12.45
2018-11-25T21:15:59.144Z,15.20
2018-11-25T21:18:26.705Z,13.27
2018-11-25T21:20:56.047Z,14.43
2018-11-25T21:23:24.190Z,13.18
2018-11-25T21:25:53.574Z,13.88
2018-11-25T21:28:22.215Z,10.10
2018-11-25T21:30:50.615Z,14.60
2018-11-25T21:33:18.690Z,16.03
2018-11-25T21:35:46.265Z,15.32
2018-11-25T21:38:15.733Z,13.68
2018-11-25T21:40:43.833Z,18.80
2018-11-25T21:43:13.011Z,15.27
2018-11-25T21:45:41.132Z,18.00
2018-11-25T21:48:10.572Z,12.10
2018-11-25T21:50:40.172Z,18.35
2018-11-25T21:53:08.205Z,17.33
2018-11-25T21:55:36.325Z,17.48
2018-11-25T21:58:06.083Z,18.33
2018-11-25T22:00:34.702Z,18.27
2018-11-25T22:03:04.303Z,19.02
2018-11-25T22:05:31.836Z,15.18
2018-11-25T22:07:59.745Z,12.65
2018-11-25T22:10:27.480Z,18.52
2018-11-25T22:12:55.385Z,14.80
2018-11-25T22:15:25.067Z,16.90
2018-11-25T22:17:52.919Z,19.20
2018-11-25T22:20:22.316Z,17.97
2018-11-25T22:22:51.838Z,15.85
2018-11-25T22:25:22.480Z,14.00
2018-11-25T22:27:51.189Z,15.32
2018-11-25T22:30:21.123Z,18.98
2018-11-25T22:32:48.936Z,13.13
2018-11-25T22:35:19.838Z,10.77
2018-11-25T22:37:49.017Z,13.70
2018-11-25T22:40:20.043Z,17.00
2018-11-25T22:42:48.235Z,16.58
2018-11-25T22:45:17.020Z,17.33
2018-11-25T22:47:44.707Z,24.35
2018-11-25T22:50:13.146Z,16.90
2018-11-25T22:52:42.544Z,19.10
2018-11-25T22:55:23.831Z,17.63
2018-11-25T22:57:53.739Z,13.80
2018-11-25T23:00:22.701Z,12.88
2018-11-25T23:02:50.691Z,12.57
2018-11-25T23:05:38.344Z,12.50
2018-11-25T23:08:06.614Z,12.03
2018-11-25T23:10:34.612Z,14.57
2018-11-25T23:13:02.484Z,11.73
2018-11-25T23:15:32.596Z,16.33
2018-11-25T23:18:02.331Z,11.20
2018-11-25T23:20:30.169Z,20.13
2018-11-25T23:22:59.749Z,17.55
2018-11-25T23:25:27.840Z,22.90
2018-11-25T23:27:57.544Z,20.37
2018-11-25T23:30:25.382Z,22.08
2018-11-25T23:32:54.680Z,21.70
2018-11-25T23:35:26.317Z,15.80
2018-11-25T23:37:55.741Z,15.38
2018-11-25T23:40:25.310Z,18.50
2018-11-25T23:42:54.661Z,14.67
2018-11-25T23:45:23.010Z,19.67
2018-11-25T23:47:52.602Z,19.98
2018-11-25T23:50:21.420Z,17.42
2018-11-25T23:52:50.916Z,19.27
2018-11-25T23:55:18.851Z,20.52
2018-11-25T23:57:48.415Z,19.92
